createdAt,value
2022-11-30T10:22:14.721Z,23.97
2022-11-30T10:25:00.133Z,20.70
2022-11-30T10:27:41.972Z,20.97
2022-11-30T10:30:17.005Z,20.13
2022-11-30T10:32:48.325Z,22.93
2022-11-30T10:35:22.279Z,16.60
2022-11-30T10:37:54.231Z,16.43
2022-11-30T10:40:33.442Z,19.00
2022-11-30T10:43:10.546Z,18.57
2022-11-30T10:45:45.598Z,25.40
2022-11-30T10:48:18.981Z,20.97
2022-11-30T10:50:47.667Z,19.50
2022-11-30T10:53:17.216Z,16.40
2022-11-30T10:55:50.854Z,21.90
2022-11-30T10:58:24.004Z,17.55
2022-11-30T11:00:59.822Z,17.60
2022-11-30T11:03:28.846Z,22.50
2022-11-30T11:06:15.439Z,18.13
2022-11-30T11:08:47.028Z,16.23
2022-11-30T11:11:34.793Z,18.33
2022-11-30T11:14:16.390Z,14.67
2022-11-30T11:16:56.311Z,18.50
2022-11-30T11:19:37.630Z,16.80
2022-11-30T11:22:08.584Z,20.73
2022-11-30T11:24:38.112Z,13.87
2022-11-30T11:27:06.525Z,13.90
2022-11-30T11:29:36.256Z,12.00
2022-11-30T11:32:22.946Z,11.10
2022-11-30T11:34:51.632Z,13.30
2022-11-30T11:37:24.611Z,13.37
2022-11-30T11:40:06.960Z,13.90
2022-11-30T11:42:38.621Z,9.93
2022-11-30T11:45:16.149Z,11.97
2022-11-30T11:47:47.092Z,10.07
2022-11-30T11:51:05.125Z,10.80
2022-11-30T11:53:25.197Z,15.33
2022-11-30T11:56:00.592Z,15.73
2022-11-30T11:58:41.829Z,21.43
2022-11-30T12:01:39.272Z,15.03
2022-11-30T12:04:21.709Z,16.93
2022-11-30T12:06:53.811Z,18.57
2022-11-30T12:09:29.748Z,19.98
2022-11-30T12:11:59.301Z,16.77
2022-11-30T12:14:29.359Z,14.13
2022-11-30T12:17:20.247Z,20.23
2022-11-30T12:19:59.012Z,18.37
2022-11-30T12:22:52.599Z,19.50
2022-11-30T12:25:26.488Z,15.63
2022-11-30T12:28:05.755Z,19.20
2022-11-30T12:30:41.866Z,16.60
2022-11-30T12:33:16.674Z,17.13
2022-11-30T12:35:57.595Z,16.70
2022-11-30T12:38:36.864Z,13.07
2022-11-30T12:41:20.200Z,18.27
2022-11-30T12:43:55.760Z,17.13
2022-11-30T12:46:31.104Z,20.20
2022-11-30T12:49:14.289Z,16.80
2022-11-30T12:51:49.933Z,17.50
2022-11-30T12:54:27.282Z,20.73
2022-11-30T12:57:01.320Z,20.57
2022-11-30T12:59:38.374Z,25.30
2022-11-30T13:02:29.078Z,18.50
2022-11-30T13:05:04.039Z,22.20
2022-11-30T13:07:39.050Z,17.93
2022-11-30T13:10:19.893Z,19.40
2022-11-30T13:12:52.216Z,17.30
2022-11-30T13:15:24.898Z,19.93
2022-11-30T13:17:54.442Z,19.20
2022-11-30T13:20:26.748Z,15.07
2022-11-30T13:23:00.108Z,20.47
2022-11-30T13:26:07.024Z,22.57
2022-11-30T13:28:32.280Z,18.57
2022-11-30T13:31:07.493Z,15.40
2022-11-30T13:33:40.534Z,20.43
2022-11-30T13:36:24.151Z,19.47
2022-11-30T13:39:30.977Z,16.17
2022-11-30T13:42:31.524Z,15.87
2022-11-30T13:45:01.969Z,13.00
2022-11-30T13:47:34.468Z,14.63
2022-11-30T13:50:07.820Z,13.93
2022-11-30T13:53:08.595Z,15.53
2022-11-30T13:55:58.595Z,16.30
2022-11-30T13:58:27.889Z,14.60
2022-11-30T14:01:21.352Z,17.20
2022-11-30T14:04:30.471Z,18.43
2022-11-30T14:06:59.848Z,20.53
2022-11-30T14:10:07.265Z,18.70
2022-11-30T14:13:00.441Z,24.17
2022-11-30T14:15:55.298Z,22.20
2022-11-30T14:18:40.476Z,18.40
2022-11-30T14:21:34.634Z,18.03
2022-11-30T14:24:06.290Z,25.47
2022-11-30T14:26:39.318Z,23.92
2022-11-30T14:29:17.600Z,20.17
2022-11-30T14:31:54.011Z,23.53
2022-11-30T14:34:27.303Z,19.57
2022-11-30T14:37:00.460Z,23.87
2022-11-30T14:39:34.717Z,24.23
2022-11-30T14:42:03.814Z,23.00
2022-11-30T14:44:36.174Z,27.73
2022-11-30T14:47:15.244Z,24.93
2022-11-30T14:49:48.049Z,29.70
2022-11-30T14:52:34.785Z,26.37
2022-11-30T14:55:16.976Z,32.50
2022-11-30T14:57:50.312Z,26.10
2022-11-30T15:00:20.771Z,25.50
2022-11-30T15:02:50.500Z,33.20
2022-11-30T15:05:22.082Z,29.87
2022-11-30T15:07:52.111Z,29.83
2022-11-30T15:10:29.746Z,26.47
2022-11-30T15:12:58.911Z,28.07
2022-11-30T15:15:28.688Z,24.20
2022-11-30T15:17:58.527Z,27.57
2022-11-30T15:20:30.576Z,30.53
2022-11-30T15:23:01.123Z,35.47
2022-11-30T15:25:38.258Z,23.70
2022-11-30T15:28:07.945Z,22.70
2022-11-30T15:30:39.452Z,25.57
2022-11-30T15:33:07.606Z,30.73
2022-11-30T15:36:04.934Z,24.07
2022-11-30T15:38:27.352Z,26.90
2022-11-30T15:41:03.392Z,31.90
2022-11-30T15:43:37.763Z,34.30
2022-11-30T15:46:07.068Z,28.20
2022-11-30T15:48:39.279Z,28.63
2022-11-30T15:51:07.868Z,26.70
2022-11-30T15:53:50.075Z,24.70
2022-11-30T15:56:25.170Z,28.93
2022-11-30T15:59:02.799Z,28.80
2022-11-30T16:01:32.388Z,27.75
2022-11-30T16:04:08.108Z,24.07
2022-11-30T16:06:39.325Z,27.53
2022-11-30T16:09:20.470Z,30.02
2022-11-30T16:11:50.748Z,30.93
2022-11-30T16:14:18.797Z,26.03
2022-11-30T16:16:47.964Z,30.23
2022-11-30T16:19:16.233Z,26.27
2022-11-30T16:21:44.224Z,27.47
2022-11-30T16:24:15.867Z,26.20
2022-11-30T16:26:52.298Z,28.27
2022-11-30T16:29:20.725Z,28.77
2022-11-30T16:31:49.129Z,26.53
2022-11-30T16:34:17.314Z,25.60
2022-11-30T16:36:45.204Z,26.97
2022-11-30T16:39:14.448Z,24.30
2022-11-30T16:41:44.272Z,30.53
2022-11-30T16:44:14.756Z,28.37
2022-11-30T16:46:42.663Z,25.73
2022-11-30T16:49:10.870Z,26.10
2022-11-30T16:51:41.644Z,27.90
2022-11-30T16:54:12.423Z,26.10
2022-11-30T16:56:42.083Z,27.43
2022-11-30T16:59:16.274Z,32.53
2022-11-30T17:01:47.557Z,35.90
2022-11-30T17:04:19.998Z,36.00
2022-11-30T17:06:51.167Z,36.40
2022-11-30T17:09:21.696Z,29.13
2022-11-30T17:11:52.555Z,28.43
2022-11-30T17:14:21.964Z,29.23
2022-11-30T17:16:50.144Z,27.63
2022-11-30T17:19:18.682Z,28.43
2022-11-30T17:21:48.343Z,25.17
2022-11-30T17:24:16.497Z,32.07
2022-11-30T17:26:44.615Z,32.63
2022-11-30T17:29:14.246Z,23.88
2022-11-30T17:31:42.498Z,34.43
2022-11-30T17:34:10.615Z,31.60
2022-11-30T17:36:38.542Z,24.43
2022-11-30T17:39:07.919Z,28.23
2022-11-30T17:41:36.184Z,30.53
2022-11-30T17:44:04.400Z,25.43
2022-11-30T17:46:34.013Z,23.73
2022-11-30T17:49:02.447Z,28.60
2022-11-30T17:51:30.860Z,27.40
2022-11-30T17:53:59.152Z,20.80
2022-11-30T17:56:27.312Z,22.33
2022-11-30T17:58:55.226Z,26.63
2022-11-30T18:01:26.540Z,24.95
2022-11-30T18:07:11.688Z,27.03
2022-11-30T18:09:42.726Z,25.00
2022-11-30T18:12:12.235Z,29.80
2022-11-30T18:14:40.549Z,27.40
2022-11-30T18:17:08.653Z,27.17
2022-11-30T18:19:38.035Z,25.23
2022-11-30T18:22:06.102Z,27.10
2022-11-30T18:24:34.321Z,28.20
2022-11-30T18:27:02.237Z,29.10
2022-11-30T18:29:30.244Z,26.63
2022-11-30T18:31:58.484Z,28.40
2022-11-30T18:34:26.605Z,25.33
2022-11-30T18:36:56.181Z,37.20
2022-11-30T18:39:24.228Z,30.87
2022-11-30T18:41:52.174Z,32.70
2022-11-30T18:44:20.349Z,33.13
2022-11-30T18:46:48.259Z,27.87
2022-11-30T18:49:16.456Z,29.08
2022-11-30T18:51:44.351Z,30.47
2022-11-30T18:54:13.846Z,37.00
2022-11-30T18:56:42.068Z,33.93
2022-11-30T18:59:14.226Z,27.27
2022-11-30T19:01:42.811Z,30.80
2022-11-30T19:04:12.083Z,29.30
2022-11-30T19:06:41.632Z,30.08
2022-11-30T19:09:11.598Z,34.43
2022-11-30T19:11:42.647Z,29.60
2022-11-30T19:14:14.090Z,32.57
2022-11-30T19:16:42.462Z,36.73
2022-11-30T19:19:14.092Z,31.33
2022-11-30T19:21:47.345Z,31.00
2022-11-30T19:24:15.416Z,30.27
2022-11-30T19:26:44.762Z,38.50
2022-11-30T19:29:13.419Z,34.70
2022-11-30T19:31:41.338Z,37.47
2022-11-30T19:34:12.973Z,37.60
2022-11-30T19:36:41.749Z,29.10
2022-11-30T19:39:11.970Z,35.97
2022-11-30T19:41:39.994Z,37.72
2022-11-30T19:44:14.175Z,33.07
2022-11-30T19:46:42.447Z,35.80
2022-11-30T19:49:11.865Z,31.50
2022-11-30T19:51:39.825Z,35.93
2022-11-30T19:54:08.099Z,27.80
2022-11-30T19:56:37.260Z,35.27
2022-11-30T19:59:06.217Z,33.83
2022-11-30T20:01:36.222Z,34.70
2022-11-30T20:04:05.551Z,25.77
2022-11-30T20:06:36.067Z,31.90
2022-11-30T20:09:04.301Z,42.97
2022-11-30T20:11:32.722Z,40.80
2022-11-30T20:14:00.752Z,41.03
2022-11-30T20:16:29.491Z,40.17
2022-11-30T20:19:01.270Z,37.33
2022-11-30T20:21:31.089Z,37.43
2022-11-30T20:24:01.010Z,40.30
2022-11-30T20:26:31.719Z,38.20
2022-11-30T20:29:01.776Z,32.37
2022-11-30T20:31:31.362Z,39.23
2022-11-30T20:34:01.290Z,37.00
2022-11-30T20:36:29.365Z,37.72
2022-11-30T20:38:58.929Z,35.23
2022-11-30T20:41:27.318Z,39.00
2022-11-30T20:43:56.000Z,35.33
2022-11-30T20:46:26.059Z,31.90
2022-11-30T20:48:54.914Z,40.60
2022-11-30T20:51:33.428Z,38.78
2022-11-30T20:54:04.297Z,35.83
2022-11-30T20:56:32.365Z,38.80
2022-11-30T20:59:02.815Z,38.20
2022-11-30T21:01:31.702Z,36.10
2022-11-30T21:04:00.818Z,33.60
2022-11-30T21:06:31.095Z,39.00
2022-11-30T21:09:00.004Z,34.50
2022-11-30T21:11:29.482Z,37.50
2022-11-30T21:13:58.727Z,33.80
2022-11-30T21:16:29.453Z,33.93
2022-11-30T21:18:59.622Z,41.90
2022-11-30T21:21:31.864Z,36.08
2022-11-30T21:24:01.460Z,33.87
2022-11-30T21:26:31.287Z,31.63
2022-11-30T21:29:02.424Z,35.00
2022-11-30T21:31:31.114Z,38.33
2022-11-30T21:33:59.297Z,40.50
2022-11-30T21:36:27.538Z,40.80
2022-11-30T21:39:05.053Z,41.43
2022-11-30T21:41:34.902Z,36.03
2022-11-30T21:44:02.971Z,42.47
2022-11-30T21:46:31.111Z,39.93
2022-11-30T21:48:59.328Z,39.37
2022-11-30T21:51:29.696Z,36.90
2022-11-30T21:54:00.684Z,40.03
2022-11-30T21:56:30.164Z,37.10
2022-11-30T21:58:58.692Z,33.63
2022-11-30T22:01:29.028Z,38.13
2022-11-30T22:03:57.911Z,36.63
2022-11-30T22:06:27.137Z,36.67
2022-11-30T22:09:03.058Z,36.40
2022-11-30T22:11:32.089Z,35.97
2022-11-30T22:13:59.956Z,33.10
2022-11-30T22:16:35.657Z,40.57
2022-11-30T22:19:04.833Z,39.47
2022-11-30T22:21:34.054Z,33.07
2022-11-30T22:24:05.536Z,36.43
2022-11-30T22:26:35.180Z,35.57
2022-11-30T22:29:05.678Z,35.90
2022-11-30T22:31:36.179Z,31.93
2022-11-30T22:34:04.488Z,34.43
2022-11-30T22:36:35.033Z,34.40
2022-11-30T22:39:07.625Z,38.60
